createdAt,value
2023-05-16T00:02:25.912Z,1.80
2023-05-16T00:04:58.871Z,1.90
2023-05-16T00:10:07.833Z,2.40
2023-05-16T00:12:41.752Z,2.78
2023-05-16T00:15:14.613Z,2.67
2023-05-16T00:17:47.508Z,2.17
2023-05-16T00:23:00.991Z,1.85
2023-05-16T00:25:33.914Z,1.85
2023-05-16T00:30:39.686Z,1.58
2023-05-16T00:35:45.393Z,1.15
2023-05-16T00:38:21.001Z,1.83
2023-05-16T00:40:55.195Z,2.33
2023-05-16T00:43:28.129Z,2.13
2023-05-16T00:46:01.991Z,2.13
2023-05-16T00:48:35.263Z,1.52
2023-05-16T00:51:09.520Z,1.92
2023-05-16T00:53:44.238Z,1.95
2023-05-16T00:56:18.668Z,1.75
2023-05-16T00:58:52.486Z,1.85
2023-05-16T01:01:27.562Z,1.90
2023-05-16T01:04:04.449Z,2.10
2023-05-16T01:06:37.665Z,2.92
2023-05-16T01:09:14.742Z,1.70
2023-05-16T01:11:54.869Z,1.85
2023-05-16T01:14:39.876Z,1.50
2023-05-16T01:17:21.782Z,1.30
2023-05-16T01:20:12.196Z,1.30
2023-05-16T01:23:00.204Z,1.42
2023-05-16T01:25:46.938Z,1.83
2023-05-16T01:28:21.566Z,1.67
2023-05-16T01:30:56.059Z,1.67
2023-05-16T01:33:29.317Z,2.25
2023-05-16T01:38:43.449Z,1.40
2023-05-16T01:41:22.546Z,1.65
2023-05-16T01:44:02.571Z,1.65
2023-05-16T01:46:41.936Z,2.25
2023-05-16T01:49:21.138Z,2.17
2023-05-16T01:52:01.296Z,1.75
2023-05-16T01:54:37.271Z,1.45
2023-05-16T01:57:11.179Z,1.75
2023-05-16T02:05:48.024Z,1.42
2023-05-16T02:11:22.315Z,2.20
2023-05-16T02:13:55.226Z,1.65
2023-05-16T02:16:28.237Z,2.25
2023-05-16T02:19:01.177Z,1.00
2023-05-16T02:24:08.411Z,1.92
2023-05-16T02:29:15.091Z,1.42
2023-05-16T02:31:48.581Z,1.80
2023-05-16T02:37:16.256Z,2.15
2023-05-16T02:39:50.512Z,1.73
2023-05-16T02:42:25.595Z,1.88
2023-05-16T02:45:00.263Z,1.90
2023-05-16T02:47:33.378Z,1.50
2023-05-16T02:50:07.675Z,2.15
2023-05-16T02:52:42.411Z,1.58
2023-05-16T02:57:51.873Z,2.40
2023-05-16T03:00:25.045Z,1.40
2023-05-16T03:02:58.195Z,1.50
2023-05-16T03:05:32.203Z,1.30
2023-05-16T03:14:22.948Z,1.83
2023-05-16T03:16:55.744Z,1.60
2023-05-16T03:19:28.478Z,1.27
2023-05-16T03:22:01.187Z,1.90
2023-05-16T03:24:34.205Z,1.50
2023-05-16T03:29:41.922Z,1.48
2023-05-16T03:32:14.900Z,1.70
2023-05-16T03:34:48.077Z,1.35
2023-05-16T03:39:53.861Z,1.23
2023-05-16T03:45:01.099Z,1.67
2023-05-16T03:47:34.098Z,1.90
2023-05-16T03:50:08.525Z,1.48
2023-05-16T03:52:41.454Z,1.42
2023-05-16T03:57:50.070Z,1.98
2023-05-16T04:00:24.696Z,1.63
2023-05-16T04:02:57.820Z,1.73
2023-05-16T04:05:31.515Z,1.50
2023-05-16T04:08:04.756Z,1.27
2023-05-16T04:10:40.187Z,1.58
2023-05-16T04:13:13.101Z,1.63
2023-05-16T04:15:47.985Z,1.10
2023-05-16T04:18:20.871Z,2.65
2023-05-16T04:23:28.199Z,2.22
2023-05-16T04:26:02.010Z,1.63
2023-05-16T04:28:35.137Z,1.20
2023-05-16T04:31:09.435Z,1.35
2023-05-16T04:33:42.253Z,2.15
2023-05-16T04:36:15.236Z,2.13
2023-05-16T04:41:20.700Z,1.50
2023-05-16T04:43:56.550Z,2.10
2023-05-16T04:46:30.826Z,1.20
2023-05-16T04:49:03.815Z,1.30
2023-05-16T04:51:36.750Z,0.93
2023-05-16T04:56:44.131Z,1.80
2023-05-16T04:59:16.893Z,1.55
2023-05-16T05:01:51.176Z,1.83
2023-05-16T05:04:24.590Z,0.80
2023-05-16T05:06:57.918Z,1.48
2023-05-16T05:09:30.831Z,1.67
2023-05-16T05:14:36.311Z,1.13
2023-05-16T05:17:10.457Z,1.50
2023-05-16T05:19:43.329Z,1.17
2023-05-16T05:24:49.430Z,1.40
2023-05-16T05:29:55.040Z,0.90
2023-05-16T05:35:01.938Z,1.10
2023-05-16T05:40:08.903Z,1.47
2023-05-16T05:42:46.769Z,1.55
2023-05-16T05:45:20.038Z,1.48
2023-05-16T05:50:27.929Z,1.27
2023-05-16T05:55:34.054Z,1.63
2023-05-16T05:58:07.414Z,1.27
2023-05-16T06:00:40.480Z,1.70
2023-05-16T06:03:17.122Z,1.50
2023-05-16T06:05:50.418Z,1.42
2023-05-16T06:08:23.506Z,1.45
2023-05-16T06:10:56.641Z,1.70
2023-05-16T06:13:30.872Z,1.33
2023-05-16T06:16:08.864Z,1.30
2023-05-16T06:18:44.316Z,1.55
2023-05-16T06:21:17.501Z,1.08
2023-05-16T06:23:50.706Z,1.58
2023-05-16T06:26:24.610Z,1.35
2023-05-16T06:28:57.420Z,1.40
2023-05-16T06:31:31.237Z,1.20
2023-05-16T06:34:05.394Z,1.55
2023-05-16T06:36:38.176Z,0.95
2023-05-16T06:39:11.142Z,1.02
2023-05-16T06:44:21.814Z,1.40
2023-05-16T06:49:29.092Z,0.85
2023-05-16T06:52:02.200Z,2.17
2023-05-16T06:54:35.561Z,2.13
2023-05-16T06:57:08.776Z,1.42
2023-05-16T06:59:44.423Z,1.10
2023-05-16T07:02:17.253Z,1.65
2023-05-16T07:04:51.569Z,1.10
2023-05-16T07:07:27.062Z,1.20
2023-05-16T07:10:00.168Z,1.88
2023-05-16T07:12:33.448Z,1.23
2023-05-16T07:15:07.678Z,1.77
2023-05-16T07:17:40.760Z,1.83
2023-05-16T07:20:15.015Z,1.92
2023-05-16T07:22:47.832Z,1.50
2023-05-16T07:27:55.176Z,1.73
2023-05-16T07:30:28.436Z,1.00
2023-05-16T07:33:01.205Z,1.92
2023-05-16T07:35:35.504Z,1.17
2023-05-16T07:38:08.383Z,1.50
2023-05-16T07:43:14.150Z,1.13
2023-05-16T07:45:47.265Z,1.10
2023-05-16T07:48:20.162Z,1.52
2023-05-16T07:50:55.835Z,1.63
2023-05-16T07:53:28.678Z,1.25
2023-05-16T07:56:01.611Z,1.77
2023-05-16T08:01:07.408Z,1.10
2023-05-16T08:06:16.230Z,1.00
2023-05-16T08:08:49.161Z,1.42
2023-05-16T08:16:28.387Z,1.33
2023-05-16T08:21:35.832Z,1.00
2023-05-16T08:24:11.201Z,1.00
2023-05-16T08:26:51.459Z,1.27
2023-05-16T08:29:32.716Z,1.30
2023-05-16T08:32:07.009Z,1.08
2023-05-16T08:34:39.995Z,1.15
2023-05-16T08:39:50.284Z,1.10
2023-05-16T08:44:56.071Z,0.98
2023-05-16T08:50:10.529Z,1.67
2023-05-16T08:52:47.876Z,1.00
2023-05-16T08:55:22.284Z,1.10
2023-05-16T08:57:55.896Z,1.23
2023-05-16T09:00:29.844Z,1.05
2023-05-16T09:03:04.124Z,1.17
2023-05-16T09:05:37.287Z,0.80
2023-05-16T09:08:11.928Z,1.83
2023-05-16T09:10:44.949Z,1.52
2023-05-16T09:13:17.987Z,1.10
2023-05-16T09:16:14.747Z,1.13
2023-05-16T09:18:58.291Z,1.13
2023-05-16T09:21:32.441Z,2.10
2023-05-16T09:24:08.797Z,1.45
2023-05-16T09:26:41.615Z,1.10
2023-05-16T09:29:15.451Z,1.48
2023-05-16T09:31:50.951Z,1.00
2023-05-16T09:34:24.030Z,1.42
2023-05-16T09:39:30.998Z,0.98
2023-05-16T09:42:06.413Z,1.00
2023-05-16T09:44:39.541Z,1.10
2023-05-16T09:47:16.052Z,1.55
2023-05-16T09:49:53.500Z,1.35
2023-05-16T09:52:28.545Z,1.13
2023-05-16T09:55:06.841Z,0.90
2023-05-16T09:57:40.894Z,1.08
2023-05-16T10:00:16.925Z,1.10
2023-05-16T10:02:54.662Z,1.52
2023-05-16T10:05:29.086Z,1.55
2023-05-16T10:08:04.088Z,1.02
2023-05-16T10:10:39.668Z,1.10
2023-05-16T10:13:13.907Z,1.80
2023-05-16T10:15:50.780Z,1.10
2023-05-16T10:18:26.442Z,1.00
2023-05-16T10:21:04.152Z,1.42
2023-05-16T10:23:39.351Z,0.70
2023-05-16T10:26:17.317Z,1.38
2023-05-16T10:28:54.391Z,1.00
2023-05-16T10:31:27.723Z,0.90
2023-05-16T10:34:01.390Z,0.90
2023-05-16T10:36:38.363Z,0.70
2023-05-16T10:39:15.312Z,1.25
2023-05-16T10:41:50.138Z,1.27
2023-05-16T10:44:23.051Z,1.05
2023-05-16T10:49:33.173Z,0.95
2023-05-16T10:52:09.453Z,1.15
2023-05-16T10:54:43.462Z,1.00
2023-05-16T10:57:20.995Z,1.60
2023-05-16T10:59:56.647Z,1.27
2023-05-16T11:02:33.863Z,1.25
2023-05-16T11:05:09.580Z,1.20
2023-05-16T11:07:42.997Z,1.35
2023-05-16T11:10:17.664Z,1.73
2023-05-16T11:12:55.210Z,0.90
2023-05-16T11:15:32.458Z,1.25
2023-05-16T11:18:07.825Z,1.02
2023-05-16T11:20:41.509Z,0.82
2023-05-16T11:23:27.548Z,1.20
2023-05-16T11:26:01.408Z,0.90
2023-05-16T11:28:35.895Z,1.20
2023-05-16T11:31:10.326Z,1.00
2023-05-16T11:33:43.360Z,1.15
2023-05-16T11:36:16.804Z,1.10
2023-05-16T11:38:50.385Z,1.00
2023-05-16T11:41:24.518Z,0.98
2023-05-16T11:43:58.779Z,0.90
2023-05-16T11:46:31.808Z,1.00
2023-05-16T11:49:05.216Z,0.80
2023-05-16T11:51:39.511Z,1.10
2023-05-16T11:54:13.025Z,0.75
2023-05-16T11:56:48.394Z,1.67
2023-05-16T11:59:23.065Z,0.90
2023-05-16T12:01:55.957Z,0.95
2023-05-16T12:07:02.931Z,1.10
2023-05-16T12:09:38.888Z,0.70
2023-05-16T12:12:12.254Z,1.20
2023-05-16T12:14:46.786Z,0.98
2023-05-16T12:17:22.309Z,0.70
2023-05-16T12:19:58.129Z,0.95
2023-05-16T12:22:31.428Z,0.80
2023-05-16T12:25:22.703Z,1.45
2023-05-16T12:27:56.494Z,1.10
2023-05-16T12:30:35.654Z,1.33
2023-05-16T12:33:11.159Z,1.00
2023-05-16T12:35:45.712Z,0.75
2023-05-16T12:38:20.243Z,1.33
2023-05-16T12:40:59.521Z,0.70
2023-05-16T12:43:32.593Z,1.08
2023-05-16T12:46:12.646Z,1.02
2023-05-16T12:48:47.269Z,0.77
2023-05-16T12:51:21.106Z,1.00
2023-05-16T12:54:08.966Z,0.90
2023-05-16T12:56:46.227Z,0.75
2023-05-16T12:59:20.036Z,0.88
2023-05-16T13:01:54.348Z,0.77
2023-05-16T13:04:27.186Z,1.10
2023-05-16T13:09:33.264Z,1.08
2023-05-16T13:12:07.456Z,0.85
2023-05-16T13:14:42.445Z,0.60
2023-05-16T13:17:18.038Z,1.02
2023-05-16T13:19:51.503Z,1.02
2023-05-16T13:22:24.623Z,0.75
2023-05-16T13:24:57.470Z,0.88
2023-05-16T13:30:04.156Z,0.60
2023-05-16T13:32:38.554Z,0.90
2023-05-16T13:35:11.409Z,0.77
2023-05-16T13:37:44.464Z,0.80
2023-05-16T13:40:17.471Z,0.85
2023-05-16T13:42:51.702Z,0.93
2023-05-16T13:45:24.898Z,0.70
2023-05-16T13:47:59.475Z,1.20
2023-05-16T13:50:33.801Z,1.00
2023-05-16T13:53:07.683Z,0.90
2023-05-16T13:55:40.594Z,0.93
2023-05-16T13:58:13.779Z,0.80
2023-05-16T14:00:47.733Z,0.77
2023-05-16T14:03:23.313Z,0.93
2023-05-16T14:05:56.277Z,0.63
2023-05-16T14:08:29.227Z,0.65
2023-05-16T14:11:02.024Z,0.52
2023-05-16T14:16:07.820Z,1.45
2023-05-16T14:18:41.957Z,1.17
2023-05-16T14:21:14.898Z,1.30
2023-05-16T14:23:48.289Z,0.80
2023-05-16T14:26:22.749Z,0.90
2023-05-16T14:28:57.203Z,0.52
2023-05-16T14:31:30.452Z,0.70
2023-05-16T14:34:05.242Z,0.70
2023-05-16T14:36:38.119Z,0.70
2023-05-16T14:39:12.176Z,0.70
2023-05-16T14:41:45.019Z,0.80
2023-05-16T14:44:18.351Z,0.77
2023-05-16T14:46:52.138Z,0.80
2023-05-16T14:49:27.081Z,0.80
2023-05-16T14:52:00.151Z,1.00
2023-05-16T14:54:33.152Z,0.90
2023-05-16T14:57:07.395Z,1.10
2023-05-16T14:59:40.309Z,1.45
2023-05-16T15:02:13.524Z,1.45
2023-05-16T15:04:49.080Z,1.23
2023-05-16T15:07:22.302Z,1.23
2023-05-16T15:09:55.228Z,1.45
2023-05-16T15:12:28.088Z,2.05
2023-05-16T15:15:01.098Z,2.22
2023-05-16T15:17:33.998Z,1.88
2023-05-16T15:20:11.049Z,1.73
2023-05-16T15:22:44.074Z,1.88
2023-05-16T15:25:16.939Z,2.15
2023-05-16T15:27:49.727Z,2.30
2023-05-16T15:30:38.442Z,2.83
2023-05-16T15:33:11.558Z,2.22
2023-05-16T15:35:48.458Z,2.10
2023-05-16T15:38:21.893Z,2.22
2023-05-16T15:41:09.655Z,2.20
2023-05-16T15:43:47.855Z,2.03
2023-05-16T15:48:54.413Z,2.17
2023-05-16T15:51:28.757Z,1.40
2023-05-16T15:54:01.703Z,1.67
2023-05-16T15:56:34.611Z,1.40
2023-05-16T15:59:12.149Z,1.98
2023-05-16T16:01:48.354Z,2.22
2023-05-16T16:04:23.346Z,1.70
2023-05-16T16:06:58.243Z,1.98
2023-05-16T16:09:31.187Z,2.13
2023-05-16T16:12:04.178Z,1.77
2023-05-16T16:14:37.030Z,2.13
2023-05-16T16:19:42.826Z,1.85
2023-05-16T16:22:17.066Z,2.28
2023-05-16T16:24:49.938Z,2.22
2023-05-16T16:29:55.488Z,2.40
2023-05-16T16:35:01.765Z,1.75
2023-05-16T16:37:36.816Z,2.15
2023-05-16T16:40:10.938Z,2.20
2023-05-16T16:42:43.901Z,1.90
2023-05-16T16:45:16.782Z,1.58
2023-05-16T16:50:22.897Z,2.25
2023-05-16T16:52:59.231Z,1.83
2023-05-16T16:55:32.167Z,1.98
2023-05-16T17:00:38.822Z,1.48
2023-05-16T17:03:11.867Z,1.80
2023-05-16T17:05:45.170Z,1.80
2023-05-16T17:08:19.913Z,2.05
2023-05-16T17:10:53.266Z,2.17
2023-05-16T17:13:26.685Z,2.08
2023-05-16T17:15:59.776Z,1.63
2023-05-16T17:18:34.817Z,1.17
2023-05-16T17:21:09.352Z,1.73
2023-05-16T17:23:44.406Z,1.58
2023-05-16T17:26:17.783Z,1.48
2023-05-16T17:28:53.802Z,1.85
2023-05-16T17:31:26.797Z,1.65
2023-05-16T17:33:59.878Z,1.77
2023-05-16T17:36:32.995Z,1.60
2023-05-16T17:39:08.345Z,2.00
2023-05-16T17:41:41.452Z,1.80
2023-05-16T17:44:14.455Z,2.00
2023-05-16T17:46:47.408Z,1.30
2023-05-16T17:49:21.703Z,1.45
2023-05-16T17:51:56.466Z,2.08
2023-05-16T17:54:32.220Z,1.77
2023-05-16T17:57:06.906Z,2.25
2023-05-16T17:59:40.464Z,1.73
2023-05-16T18:02:15.559Z,1.23
2023-05-16T18:04:48.660Z,1.65
2023-05-16T18:07:21.559Z,1.70
2023-05-16T18:12:28.788Z,1.65
2023-05-16T18:15:02.065Z,1.75
2023-05-16T18:17:35.659Z,1.83
2023-05-16T18:20:12.287Z,1.60
2023-05-16T18:22:50.583Z,2.28
2023-05-16T18:25:26.354Z,1.70
2023-05-16T18:27:59.492Z,1.90
2023-05-16T18:33:06.547Z,2.00
2023-05-16T18:35:39.880Z,1.90
2023-05-16T18:38:28.278Z,2.28
2023-05-16T18:41:07.378Z,1.80
2023-05-16T18:43:40.367Z,2.05
2023-05-16T19:05:09.660Z,1.65
2023-05-16T19:07:42.836Z,1.80
2023-05-16T19:12:49.200Z,1.75
2023-05-16T19:15:22.135Z,2.53
2023-05-16T19:20:29.929Z,1.98
2023-05-16T19:23:03.579Z,1.88
2023-05-16T19:25:47.194Z,1.48
2023-05-16T19:28:21.325Z,2.25
2023-05-16T19:30:54.458Z,1.83
2023-05-16T19:33:27.453Z,1.60
2023-05-16T19:36:03.165Z,1.85
2023-05-16T19:38:36.166Z,1.77
2023-05-16T19:49:43.498Z,1.63
2023-05-16T19:52:17.733Z,2.50
2023-05-16T19:54:53.949Z,1.48
2023-05-16T19:57:27.120Z,2.08
2023-05-16T20:00:00.160Z,1.90
2023-05-16T20:02:33.233Z,1.92
2023-05-16T20:05:07.221Z,1.92
2023-05-16T20:07:41.785Z,1.63
2023-05-16T20:10:16.631Z,1.25
2023-05-16T20:12:49.634Z,1.63
2023-05-16T20:17:55.700Z,2.45
2023-05-16T20:20:30.041Z,1.80
2023-05-16T20:23:04.183Z,1.27
2023-05-16T20:25:37.479Z,1.73
2023-05-16T20:28:10.318Z,1.45
2023-05-16T20:30:43.191Z,2.05
2023-05-16T20:35:51.457Z,1.60
2023-05-16T20:38:25.703Z,1.63
2023-05-16T20:40:58.664Z,1.60
2023-05-16T20:46:04.528Z,1.83
2023-05-16T20:48:37.450Z,1.70
2023-05-16T20:53:44.536Z,1.67
2023-05-16T20:56:17.496Z,1.98
2023-05-16T21:01:26.075Z,2.13
2023-05-16T21:03:58.970Z,1.73
2023-05-16T21:09:06.339Z,1.70
2023-05-16T21:11:39.346Z,1.80
2023-05-16T21:16:44.940Z,1.63
2023-05-16T21:21:50.667Z,1.58
2023-05-16T21:24:24.878Z,1.58
2023-05-16T21:26:57.831Z,2.00
2023-05-16T21:32:03.742Z,2.10
2023-05-16T21:34:36.635Z,1.48
2023-05-16T21:37:11.690Z,1.95
2023-05-16T21:39:45.909Z,1.45
2023-05-16T21:42:18.719Z,1.40
2023-05-16T21:47:26.240Z,2.20
2023-05-16T21:49:59.253Z,1.75
2023-05-16T21:52:32.434Z,1.40
2023-05-16T21:55:07.972Z,1.20
2023-05-16T21:57:41.037Z,2.25
2023-05-16T22:00:15.173Z,1.83
2023-05-16T22:02:48.577Z,1.55
2023-05-16T22:05:21.576Z,1.80
2023-05-16T22:10:28.594Z,1.70
2023-05-16T22:13:01.388Z,2.25
2023-05-16T22:18:09.897Z,2.13
2023-05-16T22:20:42.771Z,2.00
2023-05-16T22:25:50.285Z,2.10
2023-05-16T22:28:23.124Z,1.60
2023-05-16T22:33:31.211Z,1.85
2023-05-16T22:36:05.006Z,2.63
2023-05-16T22:38:46.277Z,1.92
2023-05-16T22:41:23.147Z,2.45
2023-05-16T22:43:59.277Z,2.00
2023-05-16T22:46:33.058Z,1.65
2023-05-16T22:49:08.473Z,2.35
2023-05-16T22:51:41.490Z,2.35
2023-05-16T22:54:18.135Z,2.17
2023-05-16T22:56:52.606Z,2.92
2023-05-16T22:59:26.586Z,2.13
2023-05-16T23:02:02.224Z,2.08
2023-05-16T23:04:35.181Z,2.20
2023-05-16T23:07:09.429Z,2.90
2023-05-16T23:09:44.983Z,2.20
2023-05-16T23:12:21.210Z,2.22
2023-05-16T23:18:01.819Z,2.13
2023-05-16T23:20:34.810Z,2.92
2023-05-16T23:23:07.650Z,2.53
2023-05-16T23:25:40.469Z,3.70
2023-05-16T23:28:15.020Z,2.75
2023-05-16T23:30:47.751Z,2.45
2023-05-16T23:33:20.512Z,2.08
2023-05-16T23:35:53.335Z,2.30
2023-05-16T23:38:27.401Z,3.10
2023-05-16T23:41:02.492Z,2.50
2023-05-16T23:43:36.928Z,2.85
2023-05-16T23:46:09.687Z,3.15
2023-05-16T23:48:42.522Z,2.00
2023-05-16T23:53:48.057Z,2.72
2023-05-16T23:56:20.772Z,1.77
2023-05-16T23:58:55.121Z,2.22
